Time;durP1;ratioP1;P1;durP2;ratioP2;P2;SDS_P1;SDS_P2;PMS_P1;PMS_P2;Temp;Humidity;BMP_temperature;BMP_pressure;BME280_temperature;BME280_humidity;BME280_pressure;Samples;Min_cycle;Max_cycle;Signal;HPM_P1;HPM_P2
2021/09/07 00:00:50;;;;;;;22.10;12.80;;;14.00;99.90;;;;;;4993335;28;20050;-79
2021/09/07 00:03:17;;;;;;;20.70;12.00;;;13.90;99.90;;;;;;4993202;28;20045;-78
2021/09/07 00:05:44;;;;;;;18.13;12.38;;;13.70;99.90;;;;;;5009043;28;20447;-79
2021/09/07 00:08:10;;;;;;;22.88;12.73;;;13.70;99.90;;;;;;4993357;28;20048;-79
2021/09/07 00:10:38;;;;;;;18.92;12.60;;;13.70;99.90;;;;;;5042629;28;20057;-79
2021/09/07 00:13:04;;;;;;;18.13;11.23;;;13.40;99.90;;;;;;5037755;28;20037;-79
2021/09/07 00:15:35;;;;;;;19.35;11.55;;;13.40;99.90;;;;;;5005135;28;20455;-79
2021/09/07 00:18:03;;;;;;;18.02;13.05;;;13.50;99.90;;;;;;5008962;28;20154;-79
2021/09/07 00:20:30;;;;;;;21.80;12.82;;;13.50;99.90;;;;;;5025865;28;20053;-79
2021/09/07 00:22:56;;;;;;;22.50;13.23;;;13.40;99.90;;;;;;5026299;28;20049;-79
2021/09/07 00:25:24;;;;;;;21.98;13.82;;;13.30;99.90;;;;;;5025791;28;20053;-79
2021/09/07 00:27:51;;;;;;;25.85;14.50;;;13.30;99.90;;;;;;5024570;28;20454;-79
2021/09/07 00:30:18;;;;;;;25.52;13.90;;;13.10;99.90;;;;;;5007778;28;20076;-78
2021/09/07 00:32:45;;;;;;;21.08;12.82;;;13.00;99.90;;;;;;4993359;28;20439;-79
2021/09/07 00:35:12;;;;;;;20.95;12.60;;;13.00;99.90;;;;;;5033587;28;20038;-79
2021/09/07 00:37:40;;;;;;;22.65;12.85;;;12.90;99.90;;;;;;5009261;28;20073;-79
2021/09/07 00:40:08;;;;;;;21.23;13.10;;;13.00;99.90;;;;;;5008736;28;20053;-78
2021/09/07 00:42:37;;;;;;;23.52;13.60;;;13.10;99.90;;;;;;5013856;28;20049;-78
2021/09/07 00:45:05;;;;;;;23.88;14.60;;;13.10;99.90;;;;;;4997574;28;20542;-79
2021/09/07 00:47:33;;;;;;;20.50;13.57;;;13.00;99.90;;;;;;5025053;28;20072;-79
2021/09/07 00:50:00;;;;;;;20.63;13.30;;;12.80;99.90;;;;;;5010198;28;20046;-80
2021/09/07 00:52:27;;;;;;;22.27;13.30;;;12.60;99.90;;;;;;5030147;28;20041;-81
2021/09/07 00:54:55;;;;;;;20.77;13.30;;;12.50;99.90;;;;;;5017968;28;20056;-81
2021/09/07 00:57:25;;;;;;;23.83;13.95;;;12.60;99.90;;;;;;5033122;28;20053;-81
2021/09/07 00:59:53;;;;;;;20.60;13.55;;;12.60;99.90;;;;;;5053054;28;20362;-79
2021/09/07 01:02:21;;;;;;;25.05;14.82;;;12.50;99.90;;;;;;5026770;28;20059;-80
2021/09/07 01:04:49;;;;;;;24.88;14.63;;;12.40;99.90;;;;;;5011244;28;20099;-80
2021/09/07 01:07:18;;;;;;;26.00;14.15;;;12.30;99.90;;;;;;4995537;28;20041;-80
2021/09/07 01:09:45;;;;;;;20.30;13.95;;;12.30;99.90;;;;;;5009841;28;20109;-82
2021/09/07 01:12:13;;;;;;;20.67;12.80;;;12.50;99.90;;;;;;5011414;28;20047;-81
2021/09/07 01:14:42;;;;;;;22.08;13.38;;;12.50;99.90;;;;;;5025678;28;20045;-80
2021/09/07 01:17:14;;;;;;;23.05;13.77;;;12.30;99.90;;;;;;5010732;28;20057;-82
2021/09/07 01:19:45;;;;;;;19.00;12.32;;;12.30;99.90;;;;;;4993606;28;20056;-82
2021/09/07 01:22:13;;;;;;;22.95;14.00;;;12.30;99.90;;;;;;4991074;28;20049;-82
2021/09/07 01:24:40;;;;;;;18.80;13.25;;;12.30;99.90;;;;;;5009656;28;20528;-81
2021/09/07 01:27:07;;;;;;;21.95;13.75;;;12.30;99.90;;;;;;4991587;28;20116;-82
2021/09/07 01:29:36;;;;;;;20.40;12.45;;;12.10;99.90;;;;;;4993095;28;20041;-82
2021/09/07 01:32:07;;;;;;;19.15;11.90;;;12.20;99.90;;;;;;5009487;28;20471;-81
2021/09/07 01:34:34;;;;;;;20.60;12.85;;;12.10;99.90;;;;;;4992530;28;20056;-81
2021/09/07 01:37:00;;;;;;;21.02;12.32;;;12.00;99.90;;;;;;5010267;28;20045;-77
2021/09/07 01:39:27;;;;;;;28.33;13.75;;;12.10;99.90;;;;;;4992345;28;20081;-77
2021/09/07 01:41:55;;;;;;;25.27;14.25;;;12.10;99.90;;;;;;4991491;28;20045;-78
2021/09/07 01:44:23;;;;;;;25.00;13.88;;;12.00;99.90;;;;;;5050184;28;20139;-78
2021/09/07 01:46:49;;;;;;;19.40;11.93;;;12.00;99.90;;;;;;5009664;28;20057;-79
2021/09/07 01:49:17;;;;;;;27.30;12.98;;;12.00;99.90;;;;;;5008770;28;20111;-79
2021/09/07 01:51:45;;;;;;;19.23;11.75;;;12.00;99.90;;;;;;5007327;28;20059;-79
2021/09/07 01:54:12;;;;;;;18.08;11.25;;;11.90;99.90;;;;;;4992481;28;20041;-81
2021/09/07 01:56:40;;;;;;;21.23;12.07;;;11.90;99.90;;;;;;5007575;28;20446;-81
2021/09/07 01:59:09;;;;;;;24.00;12.95;;;11.80;99.90;;;;;;5006411;28;20517;-81
2021/09/07 02:01:37;;;;;;;23.20;12.15;;;11.60;99.90;;;;;;5003200;28;20045;-81
2021/09/07 02:04:05;;;;;;;21.70;12.93;;;11.70;99.90;;;;;;4993914;28;20069;-81
2021/09/07 02:06:32;;;;;;;19.90;12.45;;;11.60;99.90;;;;;;5010147;28;20053;-80
2021/09/07 02:09:01;;;;;;;22.48;13.65;;;11.70;99.90;;;;;;5028373;28;20103;-81
2021/09/07 02:11:27;;;;;;;21.48;13.52;;;11.60;99.90;;;;;;5010533;28;20061;-81
2021/09/07 02:13:54;;;;;;;20.52;11.65;;;11.60;99.90;;;;;;5036087;28;20061;-81
2021/09/07 02:16:21;;;;;;;21.98;11.85;;;11.70;99.90;;;;;;4999642;28;20083;-81
2021/09/07 02:18:48;;;;;;;21.80;11.60;;;11.70;99.90;;;;;;5028357;28;20149;-81
2021/09/07 02:21:15;;;;;;;20.17;11.85;;;11.80;99.90;;;;;;4995408;28;20045;-80
2021/09/07 02:23:43;;;;;;;18.70;12.40;;;11.80;99.90;;;;;;5028191;28;20095;-80
2021/09/07 02:26:10;;;;;;;21.23;12.95;;;11.80;99.90;;;;;;5010928;28;20045;-79
2021/09/07 02:28:37;;;;;;;20.90;12.98;;;11.60;99.90;;;;;;5008913;28;20034;-79
2021/09/07 02:31:04;;;;;;;20.05;12.27;;;11.50;99.90;;;;;;5023512;28;20102;-80
2021/09/07 02:33:33;;;;;;;22.95;13.18;;;11.50;99.90;;;;;;5020836;28;20548;-79
2021/09/07 02:36:00;;;;;;;20.15;11.52;;;11.60;99.90;;;;;;5011144;28;20140;-79
2021/09/07 02:38:30;;;;;;;23.25;12.80;;;11.60;99.90;;;;;;5010518;28;20058;-78
2021/09/07 02:40:58;;;;;;;22.38;11.88;;;11.70;99.90;;;;;;5043621;28;20084;-79
2021/09/07 02:43:26;;;;;;;18.65;11.45;;;11.80;99.90;;;;;;5031871;28;20049;-80
2021/09/07 02:45:53;;;;;;;18.35;11.48;;;11.80;99.90;;;;;;5034001;28;20045;-80
2021/09/07 02:48:21;;;;;;;19.33;12.45;;;11.70;99.90;;;;;;5010637;28;20107;-80
2021/09/07 02:50:48;;;;;;;23.75;12.82;;;11.60;99.90;;;;;;5010240;28;20626;-81
2021/09/07 02:53:15;;;;;;;19.67;12.07;;;11.40;99.90;;;;;;5009996;28;20046;-79
2021/09/07 02:55:42;;;;;;;17.15;10.95;;;11.40;99.90;;;;;;5010435;28;20050;-80
2021/09/07 02:58:09;;;;;;;23.63;12.45;;;11.30;99.90;;;;;;5043937;28;20095;-80
2021/09/07 03:00:37;;;;;;;22.42;12.63;;;11.20;99.90;;;;;;5014495;28;20046;-79
2021/09/07 03:03:04;;;;;;;18.63;11.98;;;11.30;99.90;;;;;;5017585;28;20049;-80
2021/09/07 03:05:31;;;;;;;21.88;12.57;;;11.40;99.90;;;;;;5002010;28;20399;-79
2021/09/07 03:07:59;;;;;;;19.85;12.20;;;11.50;99.90;;;;;;4991830;28;20120;-80
2021/09/07 03:10:26;;;;;;;19.52;12.52;;;11.30;99.90;;;;;;4998148;28;20137;-80
2021/09/07 03:12:54;;;;;;;22.90;11.93;;;11.20;99.90;;;;;;4996850;28;20041;-81
2021/09/07 03:15:23;;;;;;;23.83;12.88;;;11.20;99.90;;;;;;5006193;28;20103;-81
2021/09/07 03:17:51;;;;;;;22.90;12.77;;;11.30;99.90;;;;;;4999468;28;20041;-81
2021/09/07 03:20:19;;;;;;;26.67;12.90;;;11.20;99.90;;;;;;5010782;28;20053;-80
2021/09/07 03:22:46;;;;;;;21.83;11.98;;;11.10;99.90;;;;;;5011962;28;20698;-80
2021/09/07 03:25:13;;;;;;;23.95;13.45;;;11.20;99.90;;;;;;4994709;28;20048;-79
2021/09/07 03:27:40;;;;;;;26.38;14.48;;;11.20;99.90;;;;;;5010199;28;20037;-81
2021/09/07 03:30:07;;;;;;;18.42;12.50;;;11.10;99.90;;;;;;5025804;28;21079;-80
2021/09/07 03:32:35;;;;;;;23.77;12.75;;;11.00;99.90;;;;;;5011668;28;20269;-81
2021/09/07 03:35:04;;;;;;;17.10;11.35;;;10.90;99.90;;;;;;5014925;28;20041;-80
2021/09/07 03:37:33;;;;;;;21.52;13.75;;;10.80;99.90;;;;;;4994767;28;20079;-80
2021/09/07 03:40:00;;;;;;;21.75;12.57;;;10.80;99.90;;;;;;4995106;28;20045;-79
2021/09/07 03:42:27;;;;;;;23.63;14.20;;;10.80;99.90;;;;;;5010042;28;20053;-80
2021/09/07 03:44:56;;;;;;;22.17;13.10;;;10.90;99.90;;;;;;5010647;28;20722;-80
2021/09/07 03:47:24;;;;;;;19.90;12.80;;;10.80;99.90;;;;;;4991864;28;20153;-79
2021/09/07 03:49:51;;;;;;;20.92;12.48;;;10.70;99.90;;;;;;5010241;28;20194;-79
2021/09/07 03:52:18;;;;;;;25.48;12.75;;;10.60;99.90;;;;;;5009868;28;20455;-79
2021/09/07 03:54:46;;;;;;;21.60;12.07;;;10.60;99.90;;;;;;5010880;28;20136;-79
2021/09/07 03:57:14;;;;;;;25.25;13.35;;;10.50;99.90;;;;;;5012308;28;20723;-79
2021/09/07 03:59:41;;;;;;;22.02;13.00;;;10.50;99.90;;;;;;5026705;28;20522;-80
2021/09/07 04:02:08;;;;;;;23.75;12.98;;;10.40;99.90;;;;;;5031897;28;20033;-80
2021/09/07 04:04:35;;;;;;;24.73;12.32;;;10.50;99.90;;;;;;5020904;28;20065;-82
2021/09/07 04:07:02;;;;;;;19.38;12.90;;;10.60;99.90;;;;;;4995349;28;20526;-79
2021/09/07 04:09:29;;;;;;;23.80;13.05;;;10.60;99.90;;;;;;5012248;28;20053;-79
2021/09/07 04:11:59;;;;;;;21.50;14.18;;;10.60;99.90;;;;;;5011341;28;20073;-79
2021/09/07 04:14:26;;;;;;;25.80;13.40;;;10.60;99.90;;;;;;5008120;28;20056;-79
2021/09/07 04:16:53;;;;;;;28.67;14.57;;;10.40;99.90;;;;;;5009286;28;20058;-79
2021/09/07 04:19:20;;;;;;;24.17;14.30;;;10.50;99.90;;;;;;4995134;28;20111;-79
2021/09/07 04:21:47;;;;;;;24.52;13.50;;;10.60;99.90;;;;;;5007341;28;20054;-80
2021/09/07 04:24:14;;;;;;;22.42;13.85;;;10.60;99.90;;;;;;5007664;28;20038;-79
2021/09/07 04:26:40;;;;;;;28.40;13.57;;;10.70;99.90;;;;;;5005051;28;20508;-79
2021/09/07 04:29:07;;;;;;;23.75;15.38;;;10.70;99.90;;;;;;5021852;28;20038;-79
2021/09/07 04:31:34;;;;;;;27.55;15.18;;;10.60;99.90;;;;;;5024351;28;20045;-79
2021/09/07 04:34:02;;;;;;;21.33;13.57;;;10.50;99.90;;;;;;5006796;28;20422;-77
2021/09/07 04:36:29;;;;;;;26.23;13.45;;;10.60;99.90;;;;;;5009499;28;20050;-79
2021/09/07 04:38:56;;;;;;;24.08;13.75;;;10.60;99.90;;;;;;5010140;28;20053;-81
2021/09/07 04:41:23;;;;;;;24.17;13.35;;;10.60;99.90;;;;;;5010033;28;20392;-81
2021/09/07 04:43:51;;;;;;;20.05;12.40;;;10.60;99.90;;;;;;5026659;28;20064;-81
2021/09/07 04:46:18;;;;;;;28.13;14.18;;;10.70;99.90;;;;;;4993448;28;20521;-79
2021/09/07 04:48:48;;;;;;;25.38;13.27;;;10.80;99.90;;;;;;5009956;28;20456;-80
2021/09/07 04:51:15;;;;;;;25.95;14.60;;;10.90;99.90;;;;;;4992888;28;20132;-80
2021/09/07 04:53:42;;;;;;;23.15;14.02;;;10.90;99.90;;;;;;4993115;28;20053;-80
2021/09/07 04:56:09;;;;;;;32.00;15.20;;;11.00;99.90;;;;;;4993783;28;20038;-80
2021/09/07 04:58:35;;;;;;;25.73;14.48;;;11.10;99.90;;;;;;5009428;28;20057;-80
2021/09/07 05:01:02;;;;;;;32.63;15.23;;;11.00;99.90;;;;;;5029009;28;20049;-81
2021/09/07 05:03:29;;;;;;;24.23;14.20;;;11.10;99.90;;;;;;5001657;28;20057;-82
2021/09/07 05:06:01;;;;;;;22.05;13.90;;;11.20;99.90;;;;;;4993903;28;20053;-80
2021/09/07 05:08:28;;;;;;;21.08;12.02;;;11.00;99.90;;;;;;5009149;28;20521;-78
2021/09/07 05:10:55;;;;;;;24.02;13.13;;;11.10;99.90;;;;;;5008539;28;20053;-78
2021/09/07 05:13:22;;;;;;;23.00;13.88;;;11.20;99.90;;;;;;4995880;28;20041;-78
2021/09/07 05:15:49;;;;;;;23.67;14.10;;;11.30;99.90;;;;;;5009209;28;20037;-78
2021/09/07 05:18:15;;;;;;;28.08;13.73;;;11.20;99.90;;;;;;5026276;28;20087;-78
2021/09/07 05:20:42;;;;;;;21.42;13.35;;;11.20;99.90;;;;;;5008715;28;20144;-79
2021/09/07 05:23:09;;;;;;;22.35;12.85;;;11.20;99.90;;;;;;5009571;28;20041;-78
2021/09/07 05:25:36;;;;;;;23.00;12.60;;;11.10;99.90;;;;;;5026855;28;20049;-80
2021/09/07 05:28:03;;;;;;;23.60;13.05;;;11.10;99.90;;;;;;4996678;28;20080;-80
2021/09/07 05:30:30;;;;;;;23.83;12.32;;;11.00;99.90;;;;;;5002738;28;20323;-81
2021/09/07 05:32:56;;;;;;;22.23;11.85;;;11.20;99.90;;;;;;5061501;28;20140;-81
2021/09/07 05:35:23;;;;;;;17.70;10.38;;;11.30;99.90;;;;;;4994204;28;20642;-80
2021/09/07 05:37:50;;;;;;;17.90;11.35;;;11.50;99.90;;;;;;5006659;28;20037;-80
2021/09/07 05:40:17;;;;;;;18.17;12.10;;;11.60;99.90;;;;;;4996928;28;20048;-80
2021/09/07 05:42:45;;;;;;;17.00;11.57;;;11.70;99.90;;;;;;4994705;28;20048;-79
2021/09/07 05:45:15;;;;;;;17.73;11.95;;;11.70;99.90;;;;;;5007912;28;20136;-77
2021/09/07 05:47:42;;;;;;;18.33;10.57;;;11.80;99.90;;;;;;5023427;28;20053;-79
2021/09/07 05:50:10;;;;;;;22.15;11.02;;;12.00;99.90;;;;;;5023831;28;20128;-79
2021/09/07 05:52:38;;;;;;;18.33;11.77;;;12.10;99.90;;;;;;5024834;28;20049;-78
2021/09/07 05:55:05;;;;;;;18.98;11.45;;;12.10;99.90;;;;;;5040654;28;20051;-78
2021/09/07 05:57:32;;;;;;;25.63;12.07;;;12.10;99.90;;;;;;5007640;28;20041;-78
2021/09/07 05:59:59;;;;;;;22.02;12.57;;;12.20;99.90;;;;;;5023969;28;20038;-78
2021/09/07 06:02:26;;;;;;;23.60;12.27;;;12.40;99.90;;;;;;5015547;28;20057;-78
2021/09/07 06:04:54;;;;;;;19.52;11.95;;;12.50;99.90;;;;;;5014226;28;20114;-78
2021/09/07 06:07:21;;;;;;;18.38;12.00;;;12.40;99.90;;;;;;4996481;28;20050;-79
2021/09/07 06:09:48;;;;;;;17.25;11.68;;;12.60;99.90;;;;;;4999744;28;20033;-78
2021/09/07 06:12:15;;;;;;;16.88;11.60;;;12.70;99.90;;;;;;4993307;28;20594;-78
2021/09/07 06:14:41;;;;;;;18.48;12.00;;;12.90;99.90;;;;;;5008270;28;20450;-79
2021/09/07 06:17:08;;;;;;;17.27;11.85;;;12.80;99.90;;;;;;5007118;28;20061;-78
2021/09/07 06:19:35;;;;;;;21.10;12.02;;;13.00;99.90;;;;;;5011601;28;20046;-78
2021/09/07 06:22:03;;;;;;;16.50;11.05;;;13.10;99.90;;;;;;5008383;28;20041;-77
2021/09/07 06:24:30;;;;;;;18.05;11.40;;;13.20;99.90;;;;;;5014256;28;20053;-79
2021/09/07 06:26:57;;;;;;;19.20;11.38;;;13.30;99.90;;;;;;5010891;28;20061;-79
2021/09/07 06:29:24;;;;;;;18.13;12.50;;;13.50;99.90;;;;;;5022192;28;20490;-79
2021/09/07 06:31:51;;;;;;;18.27;11.18;;;13.80;99.90;;;;;;4996646;28;20053;-78
2021/09/07 06:34:38;;;;;;;22.77;11.60;;;13.90;99.90;;;;;;5014850;28;20056;-80
2021/09/07 06:37:05;;;;;;;20.00;12.18;;;13.90;99.90;;;;;;4990818;28;20045;-81
2021/09/07 06:39:32;;;;;;;19.10;13.88;;;14.10;99.90;;;;;;5008055;28;20052;-78
2021/09/07 06:41:59;;;;;;;18.23;11.60;;;14.20;99.90;;;;;;4990818;28;20055;-79
2021/09/07 06:44:25;;;;;;;17.42;11.88;;;14.30;99.90;;;;;;5023481;28;20065;-79
2021/09/07 06:46:52;;;;;;;18.33;11.48;;;14.30;99.90;;;;;;5054778;28;20260;-79
2021/09/07 06:49:19;;;;;;;16.52;11.05;;;14.50;99.90;;;;;;4992212;28;20055;-79
2021/09/07 06:51:46;;;;;;;14.23;11.15;;;14.60;99.90;;;;;;4993122;28;20045;-79
2021/09/07 06:54:12;;;;;;;16.50;11.68;;;14.80;99.90;;;;;;5010451;28;20277;-79
2021/09/07 06:56:39;;;;;;;19.13;12.15;;;15.00;99.90;;;;;;5041996;28;20100;-79
2021/09/07 06:59:06;;;;;;;23.80;12.50;;;15.10;99.90;;;;;;5010340;28;20566;-79
2021/09/07 07:01:33;;;;;;;17.77;12.75;;;15.20;99.90;;;;;;5032610;28;20119;-79
2021/09/07 07:04:00;;;;;;;19.55;11.38;;;15.50;99.90;;;;;;5041055;28;20048;-82
2021/09/07 07:06:27;;;;;;;17.02;11.10;;;15.60;99.90;;;;;;5002044;28;20049;-80
2021/09/07 07:08:54;;;;;;;15.23;10.98;;;15.80;99.90;;;;;;5028456;28;20073;-80
2021/09/07 07:11:21;;;;;;;14.65;11.00;;;15.80;99.90;;;;;;4996589;28;20072;-79
2021/09/07 07:13:48;;;;;;;16.15;11.27;;;15.80;99.90;;;;;;5012292;28;20088;-79
2021/09/07 07:16:14;;;;;;;15.95;10.95;;;16.10;99.90;;;;;;5011197;28;20041;-78
2021/09/07 07:18:41;;;;;;;15.18;11.32;;;16.20;99.90;;;;;;5028291;28;20049;-78
2021/09/07 07:21:08;;;;;;;15.73;11.15;;;16.30;99.90;;;;;;5028076;28;20060;-79
2021/09/07 07:23:35;;;;;;;19.50;12.38;;;16.40;99.90;;;;;;4996527;28;20053;-78
2021/09/07 07:26:02;;;;;;;19.60;13.05;;;16.50;99.90;;;;;;5000978;28;20045;-79
2021/09/07 07:28:29;;;;;;;15.05;12.57;;;16.70;99.90;;;;;;5010043;28;20049;-78
2021/09/07 07:30:56;;;;;;;15.82;12.55;;;16.90;99.90;;;;;;5045918;28;20252;-80
2021/09/07 07:33:22;;;;;;;13.52;11.80;;;17.10;99.90;;;;;;5004055;28;20091;-80
2021/09/07 07:35:49;;;;;;;21.40;13.38;;;17.30;99.90;;;;;;4993632;28;20037;-80
2021/09/07 07:38:16;;;;;;;17.88;14.18;;;17.50;99.90;;;;;;5011450;28;20042;-81
2021/09/07 07:40:45;;;;;;;16.80;12.73;;;17.90;99.90;;;;;;5010603;28;20041;-78
2021/09/07 07:43:12;;;;;;;16.88;13.38;;;18.10;99.90;;;;;;5044657;28;20087;-78
2021/09/07 07:45:39;;;;;;;20.50;14.05;;;18.30;99.90;;;;;;4998624;28;20052;-78
2021/09/07 07:48:06;;;;;;;17.08;13.55;;;18.40;99.90;;;;;;4998005;28;20049;-78
2021/09/07 07:50:33;;;;;;;21.00;14.15;;;18.50;99.90;;;;;;5045792;28;20050;-79
2021/09/07 07:53:02;;;;;;;19.42;14.50;;;18.60;99.90;;;;;;4996624;28;20080;-81
2021/09/07 07:55:30;;;;;;;16.23;14.38;;;18.70;99.90;;;;;;5028226;28;20059;-79
2021/09/07 07:58:00;;;;;;;18.67;15.43;;;19.00;99.90;;;;;;5011590;28;20452;-81
2021/09/07 08:00:27;;;;;;;16.77;15.10;;;19.10;99.90;;;;;;5026711;28;20053;-81
2021/09/07 08:02:54;;;;;;;18.25;16.38;;;19.20;99.90;;;;;;5021597;28;20053;-79
2021/09/07 08:05:35;;;;;;;17.95;16.10;;;19.40;99.90;;;;;;4987925;28;20065;-79
2021/09/07 08:08:02;;;;;;;19.25;15.98;;;19.60;99.90;;;;;;5041482;28;20061;-78
2021/09/07 08:10:29;;;;;;;19.13;16.40;;;19.60;99.90;;;;;;5043058;28;20057;-79
2021/09/07 08:12:56;;;;;;;17.70;15.27;;;19.60;99.90;;;;;;5027273;28;20590;-81
2021/09/07 08:15:23;;;;;;;19.15;16.95;;;19.80;99.90;;;;;;5010552;28;20231;-81
2021/09/07 08:17:50;;;;;;;17.25;15.50;;;19.80;99.90;;;;;;4990183;28;20052;-81
2021/09/07 08:20:17;;;;;;;21.85;17.40;;;20.00;99.90;;;;;;5003178;28;20059;-79
2021/09/07 08:22:44;;;;;;;19.05;17.20;;;20.20;99.90;;;;;;5001449;28;20049;-82
2021/09/07 08:25:11;;;;;;;20.50;18.25;;;20.30;99.90;;;;;;5009144;28;20064;-81
2021/09/07 08:27:39;;;;;;;20.10;18.13;;;20.30;99.90;;;;;;5027373;28;20060;-80
2021/09/07 08:30:06;;;;;;;19.85;18.00;;;20.00;99.90;;;;;;5008855;28;20053;-81
2021/09/07 08:32:39;;;;;;;21.55;18.70;;;19.90;99.90;;;;;;5017289;28;20041;-79
2021/09/07 08:35:08;;;;;;;20.08;18.02;;;20.00;99.90;;;;;;5020035;28;20064;-81
2021/09/07 08:37:35;;;;;;;20.42;18.30;;;19.90;99.90;;;;;;5006315;28;20513;-81
2021/09/07 08:40:04;;;;;;;20.65;18.65;;;20.20;99.90;;;;;;5025306;28;20056;-79
2021/09/07 08:42:33;;;;;;;19.75;17.98;;;20.40;99.90;;;;;;4993431;28;20060;-77
2021/09/07 08:45:01;;;;;;;22.00;20.00;;;20.60;99.90;;;;;;4993180;28;20049;-78
2021/09/07 08:47:29;;;;;;;19.02;17.33;;;20.60;99.90;;;;;;5007678;28;20064;-77
2021/09/07 08:49:57;;;;;;;18.60;16.85;;;20.60;99.90;;;;;;4993031;28;20046;-78
2021/09/07 08:52:25;;;;;;;19.83;18.15;;;20.50;99.90;;;;;;4992874;28;20831;-78
2021/09/07 08:54:51;;;;;;;19.15;17.58;;;20.40;99.90;;;;;;5042845;28;20414;-79
2021/09/07 08:57:18;;;;;;;17.63;16.23;;;20.30;99.90;;;;;;5015412;28;20046;-81
2021/09/07 08:59:59;;;;;;;17.27;15.98;;;20.70;99.90;;;;;;5008678;28;20481;-80
2021/09/07 09:02:27;;;;;;;18.33;16.98;;;21.00;99.90;;;;;;5017064;28;20484;-80
2021/09/07 09:04:57;;;;;;;19.15;17.65;;;20.90;99.90;;;;;;4998650;28;20049;-80
2021/09/07 09:07:26;;;;;;;17.48;16.00;;;21.00;99.90;;;;;;5007212;28;20517;-78
2021/09/07 09:09:55;;;;;;;19.27;17.67;;;21.10;99.90;;;;;;5041662;28;20053;-80
2021/09/07 09:12:36;;;;;;;19.08;17.55;;;20.50;99.90;;;;;;5041831;28;20155;-80
2021/09/07 09:15:10;;;;;;;18.45;17.05;;;20.50;99.90;;;;;;5009083;28;20567;-80
2021/09/07 09:17:37;;;;;;;18.17;16.75;;;20.10;99.90;;;;;;4991349;28;20249;-77
2021/09/07 09:20:07;;;;;;;17.65;16.25;;;20.50;99.90;;;;;;5025042;28;20366;-79
2021/09/07 09:22:59;;;;;;;16.63;15.38;;;20.80;99.90;;;;;;5041840;28;20057;-79
2021/09/07 09:25:38;;;;;;;16.35;15.27;;;20.80;99.90;;;;;;4988898;28;20053;-80
2021/09/07 09:28:07;;;;;;;17.75;16.15;;;20.90;99.90;;;;;;5008135;28;20053;-79
2021/09/07 09:30:39;;;;;;;18.05;16.50;;;20.70;99.90;;;;;;4989881;28;20050;-79
2021/09/07 09:33:07;;;;;;;17.90;16.40;;;21.00;99.90;;;;;;5013512;28;20107;-80
2021/09/07 09:35:54;;;;;;;17.45;16.25;;;20.80;99.90;;;;;;4988270;28;20501;-80
2021/09/07 09:38:27;;;;;;;18.58;17.15;;;20.60;99.90;;;;;;5001893;28;20050;-80
2021/09/07 09:41:00;;;;;;;17.90;16.40;;;20.80;99.90;;;;;;4989517;28;20145;-79
2021/09/07 09:43:41;;;;;;;17.92;16.42;;;20.80;99.90;;;;;;5007126;28;20046;-79
2021/09/07 09:46:23;;;;;;;17.98;16.65;;;20.90;99.90;;;;;;5007649;28;20041;-78
2021/09/07 09:48:52;;;;;;;18.00;16.65;;;20.80;99.90;;;;;;4988491;28;20087;-80
2021/09/07 09:51:21;;;;;;;18.10;16.80;;;20.70;99.90;;;;;;5004024;28;20096;-81
2021/09/07 09:53:49;;;;;;;17.33;16.05;;;20.80;99.90;;;;;;5005638;28;20050;-81
2021/09/07 09:56:17;;;;;;;17.73;16.38;;;21.00;99.90;;;;;;5008245;28;20045;-78
2021/09/07 09:58:44;;;;;;;17.83;16.45;;;21.40;99.90;;;;;;5015085;28;20440;-80
2021/09/07 10:01:12;;;;;;;17.48;16.15;;;21.80;99.90;;;;;;5036966;28;20053;-82
2021/09/07 10:03:40;;;;;;;17.75;16.55;;;21.80;99.90;;;;;;5006481;28;20052;-82
2021/09/07 10:06:09;;;;;;;17.70;16.08;;;21.80;99.90;;;;;;5003784;28;20045;-79
2021/09/07 10:08:40;;;;;;;18.98;17.25;;;21.90;99.90;;;;;;5026120;28;20038;-82
2021/09/07 10:11:11;;;;;;;18.95;17.55;;;21.90;99.90;;;;;;5025565;28;20275;-82
2021/09/07 10:13:43;;;;;;;18.55;17.15;;;21.70;99.90;;;;;;5026606;28;20147;-83
2021/09/07 10:16:14;;;;;;;18.83;17.40;;;21.70;99.90;;;;;;5009170;28;20046;-82
2021/09/07 10:26:40;;;;;;;18.67;17.08;;;21.60;99.90;;;;;;5027565;28;20057;-81
2021/09/07 10:29:11;;;;;;;19.15;17.55;;;21.60;99.90;;;;;;5027783;28;20095;-79
2021/09/07 10:31:58;;;;;;;19.00;17.33;;;21.20;99.90;;;;;;5035279;28;20045;-80
2021/09/07 10:34:28;;;;;;;18.83;17.52;;;21.20;99.90;;;;;;5032290;28;20053;-79
2021/09/07 10:36:59;;;;;;;19.42;18.00;;;21.30;99.90;;;;;;5011846;28;20510;-79
2021/09/07 10:39:35;;;;;;;20.08;18.20;;;21.40;99.90;;;;;;5044940;28;20144;-80
2021/09/07 10:42:13;;;;;;;20.73;19.10;;;21.90;99.90;;;;;;5010462;28;20065;-79
2021/09/07 10:44:40;;;;;;;20.50;18.90;;;22.10;99.90;;;;;;5044618;28;20061;-79
2021/09/07 10:47:11;;;;;;;18.98;17.48;;;22.50;99.90;;;;;;5011571;28;20049;-78
2021/09/07 10:49:47;;;;;;;19.50;17.85;;;22.40;99.90;;;;;;5028759;28;20643;-81
2021/09/07 10:52:28;;;;;;;20.33;18.73;;;22.60;99.90;;;;;;5011164;28;20057;-81
2021/09/07 10:55:09;;;;;;;22.77;20.67;;;22.90;99.90;;;;;;5027811;28;20038;-80
2021/09/07 10:57:52;;;;;;;21.23;19.33;;;22.60;99.90;;;;;;5044213;28;20328;-80
2021/09/07 11:00:19;;;;;;;21.10;19.50;;;21.70;99.90;;;;;;5043956;28;20400;-81
2021/09/07 11:02:49;;;;;;;20.33;18.65;;;21.90;99.90;;;;;;5020629;28;20048;-82
2021/09/07 11:05:26;;;;;;;22.05;20.33;;;22.20;99.90;;;;;;5007105;28;20042;-82
2021/09/07 11:08:02;;;;;;;21.98;20.08;;;22.80;99.90;;;;;;4993289;28;20598;-81
2021/09/07 11:10:41;;;;;;;23.15;21.27;;;22.70;99.90;;;;;;5043703;28;20076;-81
2021/09/07 11:13:17;;;;;;;23.52;21.55;;;22.50;99.90;;;;;;5027502;28;20049;-82
2021/09/07 11:15:45;;;;;;;22.75;20.70;;;22.70;99.90;;;;;;5009931;28;20099;-81
2021/09/07 11:18:13;;;;;;;22.17;20.15;;;22.90;99.90;;;;;;5010040;28;20110;-80
2021/09/07 11:20:46;;;;;;;21.40;19.70;;;23.50;99.90;;;;;;5010543;28;20352;-81
2021/09/07 11:23:16;;;;;;;20.00;18.50;;;24.00;99.90;;;;;;4994928;28;20049;-82
2021/09/07 11:25:46;;;;;;;21.15;19.55;;;23.50;99.90;;;;;;5043516;28;20577;-80
2021/09/07 11:28:15;;;;;;;21.65;19.95;;;22.90;99.90;;;;;;5009215;28;20061;-80
2021/09/07 11:30:44;;;;;;;21.52;19.73;;;22.80;99.90;;;;;;5010702;28;20061;-79
2021/09/07 11:33:16;;;;;;;21.13;19.40;;;23.00;99.90;;;;;;5033674;28;20571;-82
2021/09/07 11:35:55;;;;;;;20.95;19.45;;;23.50;99.90;;;;;;5016431;28;20045;-80
2021/09/07 11:38:24;;;;;;;21.70;20.10;;;24.20;99.90;;;;;;5026135;28;20045;-80
2021/09/07 11:40:54;;;;;;;19.88;18.38;;;24.60;99.90;;;;;;5009362;28;20513;-81
2021/09/07 11:43:50;;;;;;;20.90;19.27;;;24.00;99.90;;;;;;4992271;28;20707;-81
2021/09/07 11:46:27;;;;;;;20.60;19.10;;;23.60;99.90;;;;;;4982542;28;20061;-81
2021/09/07 11:49:04;;;;;;;20.17;18.70;;;23.20;99.90;;;;;;5025810;28;20041;-81
2021/09/07 11:51:37;;;;;;;21.27;19.65;;;23.40;99.90;;;;;;5026221;28;20049;-81
2021/09/07 11:54:05;;;;;;;20.63;19.05;;;23.80;99.90;;;;;;4993879;28;20045;-82
2021/09/07 11:56:38;;;;;;;20.95;19.45;;;24.10;99.90;;;;;;4991064;28;20053;-80
2021/09/07 11:59:13;;;;;;;21.00;19.50;;;24.40;99.90;;;;;;5006488;28;20050;-79
2021/09/07 12:01:51;;;;;;;21.60;19.88;;;24.70;99.90;;;;;;5006060;28;20128;-80
2021/09/07 12:04:21;;;;;;;22.10;20.17;;;24.20;99.90;;;;;;5016877;28;20510;-79
2021/09/07 12:06:51;;;;;;;21.38;19.67;;;23.70;99.90;;;;;;5007259;28;20118;-78
2021/09/07 12:09:26;;;;;;;21.90;20.30;;;23.10;99.90;;;;;;5009245;28;20672;-78
2021/09/07 12:12:04;;;;;;;22.50;20.70;;;23.10;99.90;;;;;;4988292;28;20050;-78
2021/09/07 12:14:45;;;;;;;21.23;19.50;;;23.80;99.90;;;;;;5036992;28;20041;-78
2021/09/07 12:17:17;;;;;;;21.52;20.02;;;24.60;99.90;;;;;;5016862;28;20038;-78
2021/09/07 12:19:50;;;;;;;22.73;20.63;;;24.10;99.90;;;;;;5011806;28;20049;-80
2021/09/07 12:22:22;;;;;;;21.42;19.92;;;24.50;99.90;;;;;;5013337;28;20136;-79
2021/09/07 12:25:05;;;;;;;22.55;20.55;;;25.00;99.90;;;;;;5046338;28;20045;-80
2021/09/07 12:27:49;;;;;;;22.20;20.45;;;24.30;99.90;;;;;;5012709;28;20041;-82
2021/09/07 12:30:28;;;;;;;21.92;20.10;;;24.20;99.90;;;;;;5010340;28;20058;-82
2021/09/07 12:33:00;;;;;;;21.92;20.13;;;24.40;99.90;;;;;;5035339;28;20124;-82
2021/09/07 12:35:38;;;;;;;22.55;20.92;;;24.80;99.90;;;;;;4993960;28;20356;-82
2021/09/07 12:38:18;;;;;;;23.52;21.60;;;24.80;99.90;;;;;;5011063;28;20045;-81
2021/09/07 12:40:48;;;;;;;22.77;20.98;;;24.40;99.90;;;;;;5010401;28;20079;-82
2021/09/07 12:43:24;;;;;;;23.85;21.02;;;24.50;99.90;;;;;;5030945;28;20495;-81
2021/09/07 12:45:57;;;;;;;22.55;20.75;;;24.80;99.90;;;;;;5008621;28;20050;-81